sensor_id;sensor_type;location;lat;lon;timestamp;temperature;humidity
5899;DHT22;2975;50.956;6.962;2024-01-06T00:01:29;8.00;99.90
5899;DHT22;2975;50.956;6.962;2024-01-06T00:03:55;8.00;99.90
5899;DHT22;2975;50.956;6.962;2024-01-06T00:06:20;8.00;99.90
5899;DHT22;2975;50.956;6.962;2024-01-06T00:08:47;8.00;99.90
5899;DHT22;2975;50.956;6.962;2024-01-06T00:11:19;8.00;99.90
5899;DHT22;2975;50.956;6.962;2024-01-06T00:13:45;8.00;99.90
5899;DHT22;2975;50.956;6.962;2024-01-06T00:16:10;8.00;99.90
5899;DHT22;2975;50.956;6.962;2024-01-06T00:18:36;8.00;99.90
5899;DHT22;2975;50.956;6.962;2024-01-06T00:21:01;8.10;99.90
5899;DHT22;2975;50.956;6.962;2024-01-06T00:23:27;8.10;99.90
5899;DHT22;2975;50.956;6.962;2024-01-06T00:25:52;8.10;99.90
5899;DHT22;2975;50.956;6.962;2024-01-06T00:28:18;8.10;99.90
5899;DHT22;2975;50.956;6.962;2024-01-06T00:30:43;8.10;99.90
5899;DHT22;2975;50.956;6.962;2024-01-06T00:33:09;8.10;99.90
5899;DHT22;2975;50.956;6.962;2024-01-06T00:35:35;8.10;99.90
5899;DHT22;2975;50.956;6.962;2024-01-06T00:38:00;8.20;99.90
5899;DHT22;2975;50.956;6.962;2024-01-06T00:40:26;8.20;99.90
5899;DHT22;2975;50.956;6.962;2024-01-06T00:42:51;8.20;99.90
5899;DHT22;2975;50.956;6.962;2024-01-06T00:45:17;8.10;99.90
5899;DHT22;2975;50.956;6.962;2024-01-06T00:47:43;8.10;99.90
5899;DHT22;2975;50.956;6.962;2024-01-06T00:50:09;8.10;99.90
5899;DHT22;2975;50.956;6.962;2024-01-06T00:52:34;8.10;99.90
5899;DHT22;2975;50.956;6.962;2024-01-06T00:55:00;8.10;99.90
5899;DHT22;2975;50.956;6.962;2024-01-06T00:57:25;8.00;99.90
5899;DHT22;2975;50.956;6.962;2024-01-06T00:59:51;8.10;99.90
5899;DHT22;2975;50.956;6.962;2024-01-06T01:02:16;8.00;99.90
5899;DHT22;2975;50.956;6.962;2024-01-06T01:04:42;8.00;99.90
5899;DHT22;2975;50.956;6.962;2024-01-06T01:07:08;8.00;99.90
5899;DHT22;2975;50.956;6.962;2024-01-06T01:09:34;8.00;99.90
5899;DHT22;2975;50.956;6.962;2024-01-06T01:12:00;8.00;99.90
5899;DHT22;2975;50.956;6.962;2024-01-06T01:14:25;7.90;99.90
5899;DHT22;2975;50.956;6.962;2024-01-06T01:16:51;7.90;99.90
5899;DHT22;2975;50.956;6.962;2024-01-06T01:19:17;7.90;99.90
5899;DHT22;2975;50.956;6.962;2024-01-06T01:21:42;7.90;99.90
5899;DHT22;2975;50.956;6.962;2024-01-06T01:24:08;7.90;99.90
5899;DHT22;2975;50.956;6.962;2024-01-06T01:26:33;7.80;99.90
5899;DHT22;2975;50.956;6.962;2024-01-06T01:28:59;7.90;99.90
5899;DHT22;2975;50.956;6.962;2024-01-06T01:31:24;7.90;99.90
5899;DHT22;2975;50.956;6.962;2024-01-06T01:33:50;7.90;99.90
5899;DHT22;2975;50.956;6.962;2024-01-06T01:36:15;7.90;99.90
5899;DHT22;2975;50.956;6.962;2024-01-06T01:38:43;7.90;99.90
5899;DHT22;2975;50.956;6.962;2024-01-06T01:41:08;7.90;99.90
5899;DHT22;2975;50.956;6.962;2024-01-06T01:43:34;7.90;99.90
5899;DHT22;2975;50.956;6.962;2024-01-06T01:46:00;7.80;99.90
5899;DHT22;2975;50.956;6.962;2024-01-06T01:48:27;7.80;99.90
5899;DHT22;2975;50.956;6.962;2024-01-06T01:50:53;7.90;99.90
5899;DHT22;2975;50.956;6.962;2024-01-06T01:53:19;7.90;99.90
5899;DHT22;2975;50.956;6.962;2024-01-06T01:55:46;7.80;99.90
5899;DHT22;2975;50.956;6.962;2024-01-06T01:58:14;7.80;99.90
5899;DHT22;2975;50.956;6.962;2024-01-06T02:00:41;7.80;99.90
5899;DHT22;2975;50.956;6.962;2024-01-06T02:03:07;7.80;99.90
5899;DHT22;2975;50.956;6.962;2024-01-06T02:05:34;7.80;99.90
5899;DHT22;2975;50.956;6.962;2024-01-06T02:08:00;7.70;99.90
5899;DHT22;2975;50.956;6.962;2024-01-06T02:10:26;7.70;99.90
5899;DHT22;2975;50.956;6.962;2024-01-06T02:12:51;7.70;99.90
5899;DHT22;2975;50.956;6.962;2024-01-06T02:15:18;7.70;99.90
5899;DHT22;2975;50.956;6.962;2024-01-06T02:17:44;7.70;99.90
5899;DHT22;2975;50.956;6.962;2024-01-06T02:20:11;7.70;99.90
5899;DHT22;2975;50.956;6.962;2024-01-06T02:22:38;7.70;99.90
5899;DHT22;2975;50.956;6.962;2024-01-06T02:25:05;7.60;99.90
5899;DHT22;2975;50.956;6.962;2024-01-06T02:27:40;7.70;99.90
5899;DHT22;2975;50.956;6.962;2024-01-06T02:30:06;7.70;99.90
5899;DHT22;2975;50.956;6.962;2024-01-06T02:32:32;7.70;99.90
5899;DHT22;2975;50.956;6.962;2024-01-06T02:34:58;7.70;99.90
5899;DHT22;2975;50.956;6.962;2024-01-06T02:37:23;7.70;99.90
5899;DHT22;2975;50.956;6.962;2024-01-06T02:39:49;7.70;99.90
5899;DHT22;2975;50.956;6.962;2024-01-06T02:42:15;7.70;99.90
5899;DHT22;2975;50.956;6.962;2024-01-06T02:44:40;7.70;99.90
5899;DHT22;2975;50.956;6.962;2024-01-06T02:47:06;7.70;99.90
5899;DHT22;2975;50.956;6.962;2024-01-06T02:49:31;7.70;99.90
5899;DHT22;2975;50.956;6.962;2024-01-06T02:51:57;7.70;99.90
5899;DHT22;2975;50.956;6.962;2024-01-06T02:54:22;7.70;99.90
5899;DHT22;2975;50.956;6.962;2024-01-06T02:56:48;7.70;99.90
5899;DHT22;2975;50.956;6.962;2024-01-06T02:59:14;7.80;99.90
5899;DHT22;2975;50.956;6.962;2024-01-06T03:01:39;7.80;99.90
5899;DHT22;2975;50.956;6.962;2024-01-06T03:04:05;7.70;99.90
5899;DHT22;2975;50.956;6.962;2024-01-06T03:06:30;7.80;99.90
5899;DHT22;2975;50.956;6.962;2024-01-06T03:08:56;7.70;99.90
5899;DHT22;2975;50.956;6.962;2024-01-06T03:11:22;7.70;99.90
5899;DHT22;2975;50.956;6.962;2024-01-06T03:13:47;7.70;99.90
5899;DHT22;2975;50.956;6.962;2024-01-06T03:16:13;7.70;99.90
5899;DHT22;2975;50.956;6.962;2024-01-06T03:18:39;7.80;99.90
5899;DHT22;2975;50.956;6.962;2024-01-06T03:21:04;7.80;99.90
5899;DHT22;2975;50.956;6.962;2024-01-06T03:23:30;7.80;99.90
5899;DHT22;2975;50.956;6.962;2024-01-06T03:25:55;7.80;99.90
5899;DHT22;2975;50.956;6.962;2024-01-06T03:28:21;7.80;99.90
5899;DHT22;2975;50.956;6.962;2024-01-06T03:30:46;7.80;99.90
5899;DHT22;2975;50.956;6.962;2024-01-06T03:33:12;7.80;99.90
5899;DHT22;2975;50.956;6.962;2024-01-06T03:35:38;7.80;99.90
5899;DHT22;2975;50.956;6.962;2024-01-06T03:38:03;7.80;99.90
5899;DHT22;2975;50.956;6.962;2024-01-06T03:40:29;7.80;99.90
5899;DHT22;2975;50.956;6.962;2024-01-06T03:42:54;7.80;99.90
5899;DHT22;2975;50.956;6.962;2024-01-06T03:45:20;7.80;99.90
5899;DHT22;2975;50.956;6.962;2024-01-06T03:47:46;7.70;99.90
5899;DHT22;2975;50.956;6.962;2024-01-06T03:50:11;7.70;99.90
5899;DHT22;2975;50.956;6.962;2024-01-06T03:52:38;7.70;99.90
5899;DHT22;2975;50.956;6.962;2024-01-06T03:55:05;7.70;99.90
5899;DHT22;2975;50.956;6.962;2024-01-06T03:57:30;7.70;99.90
5899;DHT22;2975;50.956;6.962;2024-01-06T03:59:56;7.70;99.90
5899;DHT22;2975;50.956;6.962;2024-01-06T04:02:22;7.60;99.90
5899;DHT22;2975;50.956;6.962;2024-01-06T04:04:48;7.70;99.90
5899;DHT22;2975;50.956;6.962;2024-01-06T04:07:13;7.60;99.90
5899;DHT22;2975;50.956;6.962;2024-01-06T04:09:42;7.60;99.90
5899;DHT22;2975;50.956;6.962;2024-01-06T04:12:07;7.60;99.90
5899;DHT22;2975;50.956;6.962;2024-01-06T04:14:33;7.60;99.90
5899;DHT22;2975;50.956;6.962;2024-01-06T04:16:59;7.60;99.90
5899;DHT22;2975;50.956;6.962;2024-01-06T04:19:24;7.60;99.90
5899;DHT22;2975;50.956;6.962;2024-01-06T04:21:50;7.60;99.90
5899;DHT22;2975;50.956;6.962;2024-01-06T04:24:16;7.60;99.90
5899;DHT22;2975;50.956;6.962;2024-01-06T04:26:41;7.60;99.90
5899;DHT22;2975;50.956;6.962;2024-01-06T04:29:10;7.60;99.90
5899;DHT22;2975;50.956;6.962;2024-01-06T04:31:36;7.60;99.90
5899;DHT22;2975;50.956;6.962;2024-01-06T04:34:01;7.60;99.90
5899;DHT22;2975;50.956;6.962;2024-01-06T04:36:28;7.60;99.90
5899;DHT22;2975;50.956;6.962;2024-01-06T04:38:54;7.60;99.90
5899;DHT22;2975;50.956;6.962;2024-01-06T04:41:20;7.60;99.90
5899;DHT22;2975;50.956;6.962;2024-01-06T04:43:45;7.70;99.90
5899;DHT22;2975;50.956;6.962;2024-01-06T04:46:11;7.70;99.90
5899;DHT22;2975;50.956;6.962;2024-01-06T04:48:40;7.70;99.90
5899;DHT22;2975;50.956;6.962;2024-01-06T04:51:05;7.80;99.90
5899;DHT22;2975;50.956;6.962;2024-01-06T04:53:38;7.80;99.90
5899;DHT22;2975;50.956;6.962;2024-01-06T04:56:04;7.80;99.90
5899;DHT22;2975;50.956;6.962;2024-01-06T04:58:29;7.80;99.90
5899;DHT22;2975;50.956;6.962;2024-01-06T05:00:55;7.80;99.90
5899;DHT22;2975;50.956;6.962;2024-01-06T05:03:21;7.80;99.90
5899;DHT22;2975;50.956;6.962;2024-01-06T05:05:46;7.90;99.90
5899;DHT22;2975;50.956;6.962;2024-01-06T05:08:12;7.80;99.90
5899;DHT22;2975;50.956;6.962;2024-01-06T05:10:37;7.80;99.90
5899;DHT22;2975;50.956;6.962;2024-01-06T05:13:03;7.70;99.90
5899;DHT22;2975;50.956;6.962;2024-01-06T05:15:29;7.70;99.90
5899;DHT22;2975;50.956;6.962;2024-01-06T05:17:55;7.70;99.90
5899;DHT22;2975;50.956;6.962;2024-01-06T05:20:20;7.60;99.90
5899;DHT22;2975;50.956;6.962;2024-01-06T05:22:46;7.50;99.90
5899;DHT22;2975;50.956;6.962;2024-01-06T05:25:11;7.40;99.90
5899;DHT22;2975;50.956;6.962;2024-01-06T05:27:37;7.30;99.90
5899;DHT22;2975;50.956;6.962;2024-01-06T05:30:03;7.30;99.90
5899;DHT22;2975;50.956;6.962;2024-01-06T05:32:31;7.20;99.90
5899;DHT22;2975;50.956;6.962;2024-01-06T05:34:56;7.10;99.90
5899;DHT22;2975;50.956;6.962;2024-01-06T05:37:22;6.90;99.90
5899;DHT22;2975;50.956;6.962;2024-01-06T05:39:47;6.80;99.90
5899;DHT22;2975;50.956;6.962;2024-01-06T05:42:13;6.60;99.90
5899;DHT22;2975;50.956;6.962;2024-01-06T05:44:40;6.60;99.90
5899;DHT22;2975;50.956;6.962;2024-01-06T05:47:06;6.70;99.90
5899;DHT22;2975;50.956;6.962;2024-01-06T05:49:33;6.60;99.90
5899;DHT22;2975;50.956;6.962;2024-01-06T05:51:59;6.40;99.90
5899;DHT22;2975;50.956;6.962;2024-01-06T05:54:24;6.40;99.90
5899;DHT22;2975;50.956;6.962;2024-01-06T05:56:50;6.30;99.90
5899;DHT22;2975;50.956;6.962;2024-01-06T05:59:15;6.30;99.90
5899;DHT22;2975;50.956;6.962;2024-01-06T06:01:41;6.30;99.90
5899;DHT22;2975;50.956;6.962;2024-01-06T06:04:07;6.20;99.90
5899;DHT22;2975;50.956;6.962;2024-01-06T06:06:33;6.20;99.90
5899;DHT22;2975;50.956;6.962;2024-01-06T06:08:59;6.10;99.90
5899;DHT22;2975;50.956;6.962;2024-01-06T06:11:24;6.00;99.90
5899;DHT22;2975;50.956;6.962;2024-01-06T06:13:50;6.00;99.90
5899;DHT22;2975;50.956;6.962;2024-01-06T06:16:16;5.90;99.90
5899;DHT22;2975;50.956;6.962;2024-01-06T06:18:41;5.80;99.90
5899;DHT22;2975;50.956;6.962;2024-01-06T06:21:07;5.80;99.90
5899;DHT22;2975;50.956;6.962;2024-01-06T06:23:34;5.80;99.90
5899;DHT22;2975;50.956;6.962;2024-01-06T06:26:03;5.70;99.90
5899;DHT22;2975;50.956;6.962;2024-01-06T06:28:29;5.70;99.90
5899;DHT22;2975;50.956;6.962;2024-01-06T06:30:54;5.70;99.90
5899;DHT22;2975;50.956;6.962;2024-01-06T06:33:20;5.70;99.90
5899;DHT22;2975;50.956;6.962;2024-01-06T06:35:46;5.70;99.90
5899;DHT22;2975;50.956;6.962;2024-01-06T06:38:11;5.60;99.90
5899;DHT22;2975;50.956;6.962;2024-01-06T06:40:37;5.60;99.90
5899;DHT22;2975;50.956;6.962;2024-01-06T06:43:02;5.70;99.90
5899;DHT22;2975;50.956;6.962;2024-01-06T06:45:28;5.70;99.90
5899;DHT22;2975;50.956;6.962;2024-01-06T06:47:54;5.70;99.90
5899;DHT22;2975;50.956;6.962;2024-01-06T06:50:19;5.80;99.90
5899;DHT22;2975;50.956;6.962;2024-01-06T06:52:46;5.80;99.90
5899;DHT22;2975;50.956;6.962;2024-01-06T06:55:12;5.70;99.90
5899;DHT22;2975;50.956;6.962;2024-01-06T06:57:38;5.70;99.90
5899;DHT22;2975;50.956;6.962;2024-01-06T07:00:04;5.80;99.90
5899;DHT22;2975;50.956;6.962;2024-01-06T07:02:32;5.90;99.90
5899;DHT22;2975;50.956;6.962;2024-01-06T07:04:58;5.90;99.90
5899;DHT22;2975;50.956;6.962;2024-01-06T07:07:23;6.00;99.90
5899;DHT22;2975;50.956;6.962;2024-01-06T07:09:49;6.00;99.90
5899;DHT22;2975;50.956;6.962;2024-01-06T07:12:16;6.00;99.90
5899;DHT22;2975;50.956;6.962;2024-01-06T07:14:45;6.10;99.90
5899;DHT22;2975;50.956;6.962;2024-01-06T07:17:11;6.20;99.90
5899;DHT22;2975;50.956;6.962;2024-01-06T07:19:37;6.20;99.90
5899;DHT22;2975;50.956;6.962;2024-01-06T07:22:03;6.20;99.90
5899;DHT22;2975;50.956;6.962;2024-01-06T07:24:30;6.20;99.90
5899;DHT22;2975;50.956;6.962;2024-01-06T07:26:56;6.20;99.90
5899;DHT22;2975;50.956;6.962;2024-01-06T07:29:21;6.20;99.90
5899;DHT22;2975;50.956;6.962;2024-01-06T07:31:47;6.20;99.90
5899;DHT22;2975;50.956;6.962;2024-01-06T07:34:15;6.20;99.90
5899;DHT22;2975;50.956;6.962;2024-01-06T07:36:41;6.10;99.90
5899;DHT22;2975;50.956;6.962;2024-01-06T07:39:07;6.10;99.90
5899;DHT22;2975;50.956;6.962;2024-01-06T07:41:32;6.10;99.90
5899;DHT22;2975;50.956;6.962;2024-01-06T07:43:58;6.10;99.90
5899;DHT22;2975;50.956;6.962;2024-01-06T07:46:24;6.10;99.90
5899;DHT22;2975;50.956;6.962;2024-01-06T07:48:49;6.10;99.90
5899;DHT22;2975;50.956;6.962;2024-01-06T07:51:15;6.10;99.90
5899;DHT22;2975;50.956;6.962;2024-01-06T07:53:41;6.10;99.90
5899;DHT22;2975;50.956;6.962;2024-01-06T07:56:07;6.10;99.90
5899;DHT22;2975;50.956;6.962;2024-01-06T07:58:33;6.10;99.90
5899;DHT22;2975;50.956;6.962;2024-01-06T08:00:59;6.20;99.90
5899;DHT22;2975;50.956;6.962;2024-01-06T08:03:25;6.20;99.90
5899;DHT22;2975;50.956;6.962;2024-01-06T08:05:50;6.20;99.90
5899;DHT22;2975;50.956;6.962;2024-01-06T08:08:16;6.10;99.90
5899;DHT22;2975;50.956;6.962;2024-01-06T08:10:42;6.20;99.90
5899;DHT22;2975;50.956;6.962;2024-01-06T08:13:08;6.20;99.90
5899;DHT22;2975;50.956;6.962;2024-01-06T08:15:34;6.20;99.90
5899;DHT22;2975;50.956;6.962;2024-01-06T08:17:59;6.30;99.90
5899;DHT22;2975;50.956;6.962;2024-01-06T08:20:25;6.30;99.90
5899;DHT22;2975;50.956;6.962;2024-01-06T08:22:50;6.30;99.90
5899;DHT22;2975;50.956;6.962;2024-01-06T08:25:16;6.30;99.90
5899;DHT22;2975;50.956;6.962;2024-01-06T08:27:43;6.30;99.90
5899;DHT22;2975;50.956;6.962;2024-01-06T08:30:09;6.30;99.90
5899;DHT22;2975;50.956;6.962;2024-01-06T08:32:34;6.20;99.90
5899;DHT22;2975;50.956;6.962;2024-01-06T08:35:00;6.20;99.90
5899;DHT22;2975;50.956;6.962;2024-01-06T08:37:25;6.30;99.90
5899;DHT22;2975;50.956;6.962;2024-01-06T08:39:51;6.30;99.90
5899;DHT22;2975;50.956;6.962;2024-01-06T08:42:16;6.30;99.90
5899;DHT22;2975;50.956;6.962;2024-01-06T08:44:42;6.30;99.90
5899;DHT22;2975;50.956;6.962;2024-01-06T08:47:09;6.30;99.90
5899;DHT22;2975;50.956;6.962;2024-01-06T08:49:35;6.30;99.90
5899;DHT22;2975;50.956;6.962;2024-01-06T08:52:00;6.40;99.90
5899;DHT22;2975;50.956;6.962;2024-01-06T08:54:26;6.40;99.90
5899;DHT22;2975;50.956;6.962;2024-01-06T08:56:51;6.40;99.90
5899;DHT22;2975;50.956;6.962;2024-01-06T08:59:17;6.30;99.90
5899;DHT22;2975;50.956;6.962;2024-01-06T09:01:42;6.20;99.90
5899;DHT22;2975;50.956;6.962;2024-01-06T09:04:08;6.20;99.90
5899;DHT22;2975;50.956;6.962;2024-01-06T09:06:36;6.10;99.90
5899;DHT22;2975;50.956;6.962;2024-01-06T09:09:02;6.20;99.90
5899;DHT22;2975;50.956;6.962;2024-01-06T09:11:27;6.20;99.90
5899;DHT22;2975;50.956;6.962;2024-01-06T09:13:53;6.10;99.90
5899;DHT22;2975;50.956;6.962;2024-01-06T09:16:19;6.10;99.90
5899;DHT22;2975;50.956;6.962;2024-01-06T09:18:45;6.10;99.90
5899;DHT22;2975;50.956;6.962;2024-01-06T09:21:10;6.10;99.90
5899;DHT22;2975;50.956;6.962;2024-01-06T09:23:36;6.00;99.90
5899;DHT22;2975;50.956;6.962;2024-01-06T09:26:02;6.00;99.90
5899;DHT22;2975;50.956;6.962;2024-01-06T09:28:28;6.00;99.90
5899;DHT22;2975;50.956;6.962;2024-01-06T09:34:03;6.10;99.90
5899;DHT22;2975;50.956;6.962;2024-01-06T09:36:31;6.20;99.90
5899;DHT22;2975;50.956;6.962;2024-01-06T09:38:56;6.20;99.90
5899;DHT22;2975;50.956;6.962;2024-01-06T09:41:22;6.20;99.90
5899;DHT22;2975;50.956;6.962;2024-01-06T09:43:48;6.20;99.90
5899;DHT22;2975;50.956;6.962;2024-01-06T09:46:27;6.20;99.90
5899;DHT22;2975;50.956;6.962;2024-01-06T09:48:55;6.10;99.90
5899;DHT22;2975;50.956;6.962;2024-01-06T09:51:22;6.20;99.90
5899;DHT22;2975;50.956;6.962;2024-01-06T09:53:58;6.20;99.90
5899;DHT22;2975;50.956;6.962;2024-01-06T09:56:26;6.20;99.90
5899;DHT22;2975;50.956;6.962;2024-01-06T09:58:52;6.20;99.90
5899;DHT22;2975;50.956;6.962;2024-01-06T10:01:18;6.20;99.90
5899;DHT22;2975;50.956;6.962;2024-01-06T10:03:44;6.20;99.90
5899;DHT22;2975;50.956;6.962;2024-01-06T10:06:11;6.10;99.90
5899;DHT22;2975;50.956;6.962;2024-01-06T10:08:37;6.10;99.90
5899;DHT22;2975;50.956;6.962;2024-01-06T10:11:06;6.00;99.90
5899;DHT22;2975;50.956;6.962;2024-01-06T10:13:33;6.10;99.90
5899;DHT22;2975;50.956;6.962;2024-01-06T10:15:59;6.00;99.90
5899;DHT22;2975;50.956;6.962;2024-01-06T10:18:25;5.90;99.90
5899;DHT22;2975;50.956;6.962;2024-01-06T10:20:55;6.00;99.90
5899;DHT22;2975;50.956;6.962;2024-01-06T10:23:23;5.90;99.90
5899;DHT22;2975;50.956;6.962;2024-01-06T10:25:54;5.90;99.90
5899;DHT22;2975;50.956;6.962;2024-01-06T10:28:21;5.90;99.90
5899;DHT22;2975;50.956;6.962;2024-01-06T10:30:49;6.00;99.90
5899;DHT22;2975;50.956;6.962;2024-01-06T10:33:16;6.00;99.90
5899;DHT22;2975;50.956;6.962;2024-01-06T10:35:42;6.00;99.90
5899;DHT22;2975;50.956;6.962;2024-01-06T10:38:07;6.00;99.90
5899;DHT22;2975;50.956;6.962;2024-01-06T10:40:33;6.00;99.90
5899;DHT22;2975;50.956;6.962;2024-01-06T10:43:00;6.10;99.90
5899;DHT22;2975;50.956;6.962;2024-01-06T10:45:28;6.10;99.90
5899;DHT22;2975;50.956;6.962;2024-01-06T10:47:55;6.10;99.90
5899;DHT22;2975;50.956;6.962;2024-01-06T10:50:22;6.10;99.90
5899;DHT22;2975;50.956;6.962;2024-01-06T10:52:48;6.20;99.90
5899;DHT22;2975;50.956;6.962;2024-01-06T10:55:15;6.30;99.90
5899;DHT22;2975;50.956;6.962;2024-01-06T10:57:43;6.30;99.90
5899;DHT22;2975;50.956;6.962;2024-01-06T11:00:12;6.30;99.90
5899;DHT22;2975;50.956;6.962;2024-01-06T11:02:39;6.30;99.90
5899;DHT22;2975;50.956;6.962;2024-01-06T11:05:05;6.30;99.90
5899;DHT22;2975;50.956;6.962;2024-01-06T11:07:36;6.20;99.90
5899;DHT22;2975;50.956;6.962;2024-01-06T11:10:20;6.20;99.90
5899;DHT22;2975;50.956;6.962;2024-01-06T11:15:47;6.50;99.90
5899;DHT22;2975;50.956;6.962;2024-01-06T11:18:33;6.60;99.90
5899;DHT22;2975;50.956;6.962;2024-01-06T11:21:19;6.70;99.90
5899;DHT22;2975;50.956;6.962;2024-01-06T11:24:14;6.80;99.90
5899;DHT22;2975;50.956;6.962;2024-01-06T11:26:43;6.80;99.90
5899;DHT22;2975;50.956;6.962;2024-01-06T11:29:10;6.70;99.90
5899;DHT22;2975;50.956;6.962;2024-01-06T11:31:37;6.70;99.90
5899;DHT22;2975;50.956;6.962;2024-01-06T11:34:32;6.90;99.90
5899;DHT22;2975;50.956;6.962;2024-01-06T11:37:02;6.90;99.90
5899;DHT22;2975;50.956;6.962;2024-01-06T11:39:38;6.90;99.90
5899;DHT22;2975;50.956;6.962;2024-01-06T11:42:06;6.90;99.90
5899;DHT22;2975;50.956;6.962;2024-01-06T11:44:37;6.80;99.90
5899;DHT22;2975;50.956;6.962;2024-01-06T11:47:04;6.70;99.90
5899;DHT22;2975;50.956;6.962;2024-01-06T11:49:30;6.60;99.90
5899;DHT22;2975;50.956;6.962;2024-01-06T11:51:57;6.50;99.90
5899;DHT22;2975;50.956;6.962;2024-01-06T11:54:22;6.50;99.90
5899;DHT22;2975;50.956;6.962;2024-01-06T11:56:48;6.50;99.90
5899;DHT22;2975;50.956;6.962;2024-01-06T11:59:14;6.50;99.90
5899;DHT22;2975;50.956;6.962;2024-01-06T12:01:40;6.50;99.90
5899;DHT22;2975;50.956;6.962;2024-01-06T12:04:06;6.40;99.90
5899;DHT22;2975;50.956;6.962;2024-01-06T12:06:35;6.30;99.90
5899;DHT22;2975;50.956;6.962;2024-01-06T12:09:07;6.10;99.90
5899;DHT22;2975;50.956;6.962;2024-01-06T12:11:33;6.10;99.90
5899;DHT22;2975;50.956;6.962;2024-01-06T12:13:59;6.00;99.90
5899;DHT22;2975;50.956;6.962;2024-01-06T12:16:25;5.80;99.90
5899;DHT22;2975;50.956;6.962;2024-01-06T12:18:53;5.80;99.90
5899;DHT22;2975;50.956;6.962;2024-01-06T12:21:24;5.70;99.90
5899;DHT22;2975;50.956;6.962;2024-01-06T12:23:50;5.50;99.90
5899;DHT22;2975;50.956;6.962;2024-01-06T12:26:19;5.40;99.90
5899;DHT22;2975;50.956;6.962;2024-01-06T12:28:46;5.30;99.90
5899;DHT22;2975;50.956;6.962;2024-01-06T12:31:12;5.30;99.90
5899;DHT22;2975;50.956;6.962;2024-01-06T12:33:40;5.20;99.90
5899;DHT22;2975;50.956;6.962;2024-01-06T12:36:08;5.20;99.90
5899;DHT22;2975;50.956;6.962;2024-01-06T12:38:35;5.20;99.90
5899;DHT22;2975;50.956;6.962;2024-01-06T12:41:00;5.20;99.90
5899;DHT22;2975;50.956;6.962;2024-01-06T12:43:26;5.20;99.90
5899;DHT22;2975;50.956;6.962;2024-01-06T12:45:52;5.10;99.90
5899;DHT22;2975;50.956;6.962;2024-01-06T12:48:18;5.10;99.90
5899;DHT22;2975;50.956;6.962;2024-01-06T12:50:44;5.10;99.90
5899;DHT22;2975;50.956;6.962;2024-01-06T12:53:10;5.00;99.90
5899;DHT22;2975;50.956;6.962;2024-01-06T12:55:37;5.00;99.90
5899;DHT22;2975;50.956;6.962;2024-01-06T12:58:03;4.90;99.90
5899;DHT22;2975;50.956;6.962;2024-01-06T13:00:29;5.00;99.90
5899;DHT22;2975;50.956;6.962;2024-01-06T13:02:55;5.00;99.90
5899;DHT22;2975;50.956;6.962;2024-01-06T13:05:21;5.00;99.90
5899;DHT22;2975;50.956;6.962;2024-01-06T13:07:48;5.00;99.90
5899;DHT22;2975;50.956;6.962;2024-01-06T13:10:14;4.90;99.90
5899;DHT22;2975;50.956;6.962;2024-01-06T13:12:40;4.90;99.90
5899;DHT22;2975;50.956;6.962;2024-01-06T13:15:06;5.00;99.90
5899;DHT22;2975;50.956;6.962;2024-01-06T13:17:36;5.00;99.90
5899;DHT22;2975;50.956;6.962;2024-01-06T13:20:03;5.10;99.90
5899;DHT22;2975;50.956;6.962;2024-01-06T13:22:28;5.00;99.90
5899;DHT22;2975;50.956;6.962;2024-01-06T13:24:54;4.90;99.90
5899;DHT22;2975;50.956;6.962;2024-01-06T13:27:20;4.90;99.90
5899;DHT22;2975;50.956;6.962;2024-01-06T13:29:45;4.80;99.90
5899;DHT22;2975;50.956;6.962;2024-01-06T13:32:11;4.70;99.90
5899;DHT22;2975;50.956;6.962;2024-01-06T13:34:36;4.60;99.90
5899;DHT22;2975;50.956;6.962;2024-01-06T13:37:03;4.60;99.90
5899;DHT22;2975;50.956;6.962;2024-01-06T13:39:29;4.60;99.90
5899;DHT22;2975;50.956;6.962;2024-01-06T13:41:54;4.60;99.90
5899;DHT22;2975;50.956;6.962;2024-01-06T13:44:20;4.70;99.90
5899;DHT22;2975;50.956;6.962;2024-01-06T13:46:48;4.60;99.90
5899;DHT22;2975;50.956;6.962;2024-01-06T13:49:16;4.60;99.90
5899;DHT22;2975;50.956;6.962;2024-01-06T13:51:43;4.60;99.90
5899;DHT22;2975;50.956;6.962;2024-01-06T13:54:09;4.60;99.90
5899;DHT22;2975;50.956;6.962;2024-01-06T13:56:35;4.60;99.90
5899;DHT22;2975;50.956;6.962;2024-01-06T13:59:01;4.60;99.90
5899;DHT22;2975;50.956;6.962;2024-01-06T14:01:26;4.70;99.90
5899;DHT22;2975;50.956;6.962;2024-01-06T14:03:52;4.70;99.90
5899;DHT22;2975;50.956;6.962;2024-01-06T14:06:24;4.70;99.90
5899;DHT22;2975;50.956;6.962;2024-01-06T14:08:51;4.70;99.90
5899;DHT22;2975;50.956;6.962;2024-01-06T14:11:18;4.70;99.90
5899;DHT22;2975;50.956;6.962;2024-01-06T14:13:44;4.60;99.90
5899;DHT22;2975;50.956;6.962;2024-01-06T14:16:14;4.60;99.90
5899;DHT22;2975;50.956;6.962;2024-01-06T14:18:39;4.70;99.90
5899;DHT22;2975;50.956;6.962;2024-01-06T14:21:05;4.80;99.90
5899;DHT22;2975;50.956;6.962;2024-01-06T14:23:30;4.80;99.90
5899;DHT22;2975;50.956;6.962;2024-01-06T14:25:58;4.70;99.90
5899;DHT22;2975;50.956;6.962;2024-01-06T14:28:24;4.70;99.90
5899;DHT22;2975;50.956;6.962;2024-01-06T14:30:49;4.70;99.90
5899;DHT22;2975;50.956;6.962;2024-01-06T14:33:15;4.60;99.90
5899;DHT22;2975;50.956;6.962;2024-01-06T14:35:42;4.60;99.90
5899;DHT22;2975;50.956;6.962;2024-01-06T14:38:09;4.60;99.90
5899;DHT22;2975;50.956;6.962;2024-01-06T14:40:35;4.70;99.90
5899;DHT22;2975;50.956;6.962;2024-01-06T14:43:01;4.80;99.90
5899;DHT22;2975;50.956;6.962;2024-01-06T14:45:27;4.70;99.90
5899;DHT22;2975;50.956;6.962;2024-01-06T14:47:53;4.80;99.90
5899;DHT22;2975;50.956;6.962;2024-01-06T14:50:18;4.70;99.90
5899;DHT22;2975;50.956;6.962;2024-01-06T14:52:44;4.60;99.90
5899;DHT22;2975;50.956;6.962;2024-01-06T14:55:10;4.70;99.90
5899;DHT22;2975;50.956;6.962;2024-01-06T14:57:35;4.70;99.90
5899;DHT22;2975;50.956;6.962;2024-01-06T15:00:01;4.60;99.90
5899;DHT22;2975;50.956;6.962;2024-01-06T15:02:27;4.50;99.90
5899;DHT22;2975;50.956;6.962;2024-01-06T15:04:54;4.50;99.90
5899;DHT22;2975;50.956;6.962;2024-01-06T15:07:19;4.50;99.90
5899;DHT22;2975;50.956;6.962;2024-01-06T15:09:45;4.50;99.90
5899;DHT22;2975;50.956;6.962;2024-01-06T15:12:11;4.40;99.90
5899;DHT22;2975;50.956;6.962;2024-01-06T15:14:36;4.40;99.90
5899;DHT22;2975;50.956;6.962;2024-01-06T15:17:02;4.30;99.90
5899;DHT22;2975;50.956;6.962;2024-01-06T15:19:27;4.40;99.90
5899;DHT22;2975;50.956;6.962;2024-01-06T15:21:56;4.20;99.90
5899;DHT22;2975;50.956;6.962;2024-01-06T15:24:21;4.20;99.90
5899;DHT22;2975;50.956;6.962;2024-01-06T15:26:52;4.20;99.90
5899;DHT22;2975;50.956;6.962;2024-01-06T15:29:18;4.30;99.90
5899;DHT22;2975;50.956;6.962;2024-01-06T15:31:44;4.30;99.90
5899;DHT22;2975;50.956;6.962;2024-01-06T15:34:09;4.30;99.90
5899;DHT22;2975;50.956;6.962;2024-01-06T15:36:35;4.40;99.90
5899;DHT22;2975;50.956;6.962;2024-01-06T15:39:01;4.40;99.90
5899;DHT22;2975;50.956;6.962;2024-01-06T15:41:26;4.40;99.90
5899;DHT22;2975;50.956;6.962;2024-01-06T15:43:52;4.40;99.90
5899;DHT22;2975;50.956;6.962;2024-01-06T15:46:18;4.30;99.90
5899;DHT22;2975;50.956;6.962;2024-01-06T15:48:45;4.30;99.90
5899;DHT22;2975;50.956;6.962;2024-01-06T15:51:11;4.20;99.90
5899;DHT22;2975;50.956;6.962;2024-01-06T15:53:37;4.10;99.90
5899;DHT22;2975;50.956;6.962;2024-01-06T15:56:02;4.10;99.90
5899;DHT22;2975;50.956;6.962;2024-01-06T15:58:28;4.10;99.90
5899;DHT22;2975;50.956;6.962;2024-01-06T16:00:54;4.00;99.90
5899;DHT22;2975;50.956;6.962;2024-01-06T16:03:19;4.00;99.90
5899;DHT22;2975;50.956;6.962;2024-01-06T16:05:45;4.00;99.90
5899;DHT22;2975;50.956;6.962;2024-01-06T16:08:11;3.80;99.90
5899;DHT22;2975;50.956;6.962;2024-01-06T16:10:38;3.90;99.90
5899;DHT22;2975;50.956;6.962;2024-01-06T16:13:04;3.90;99.90
5899;DHT22;2975;50.956;6.962;2024-01-06T16:15:30;3.80;99.90
5899;DHT22;2975;50.956;6.962;2024-01-06T16:17:55;3.80;99.90